UAAH/BXH METAR and TAF weather

Enter ICAO airport designator
Station Type Date Time Source
UAAH METAR 2020/09/21 10:00 UTC NOAA

UAAH 211000Z 26011G17MPS CAVOK 24/M01 Q1011 R23/0///60 NOSIG RMK QFE720/0960


Station Type Date Time Source
UAAH Decoded METAR 2020/09/21 10:00 UTC NOAA

Station name not available
Sep 21, 2020 - 06:00 AM EDT / 2020.09.21 1000 UTC
Wind: from the W (260 degrees) at 25 MPH (21 KT) gusting to 38 MPH (33 KT):0
Visibility: greater than 7 mile(s):0
Temperature: 75 F (24 C)
Dew Point: 30 F (-1 C)
Relative Humidity: 19%
Pressure (altimeter): 29.85 in. Hg (1011 hPa)
ob: UAAH 211000Z 26011G17MPS CAVOK 24/M01 Q1011 R23/0///60 NOSIG RMK QFE720/0960
cycle: 10

Station Type Date Time Source
UAAH TAF 2016/09/21 12:09 UTC NOAA

TAF
AMD TAF
AMD UAAH 211506Z 2112/2124 36006MPS CAVOK

Example: see airport list